createdAt,value
2022-09-01T00:00:01.927Z,15
2022-09-01T00:01:00.868Z,16
2022-09-01T00:03:00.938Z,17
2022-09-01T00:04:00.908Z,16
2022-09-01T00:05:00.898Z,15
2022-09-01T00:06:00.867Z,14
2022-09-01T00:10:00.893Z,15
2022-09-01T00:11:00.869Z,17
2022-09-01T00:12:00.868Z,18
2022-09-01T00:13:00.868Z,17
2022-09-01T00:14:00.866Z,19
2022-09-01T00:15:00.913Z,18
2022-09-01T00:16:01.983Z,17
2022-09-01T00:19:00.867Z,16
2022-09-01T00:22:00.931Z,15
2022-09-01T00:23:00.869Z,13
2022-09-01T00:25:05.913Z,16
2022-09-01T00:28:00.884Z,18
2022-09-01T00:29:00.869Z,20
2022-09-01T00:30:00.895Z,18
2022-09-01T00:33:00.870Z,16
2022-09-01T00:34:00.868Z,15
2022-09-01T00:39:00.899Z,16
2022-09-01T00:41:00.961Z,18
2022-09-01T00:42:00.872Z,19
2022-09-01T00:43:01.896Z,18
2022-09-01T00:44:00.871Z,16
2022-09-01T00:45:00.888Z,19
2022-09-01T00:46:00.924Z,17
2022-09-01T00:47:00.936Z,16
2022-09-01T00:48:00.872Z,18
2022-09-01T00:50:00.872Z,15
2022-09-01T00:51:00.899Z,16
2022-09-01T00:53:00.874Z,15
2022-09-01T00:54:00.874Z,16
2022-09-01T00:55:00.881Z,17
2022-09-01T00:57:00.902Z,19
2022-09-01T00:58:00.874Z,20
2022-09-01T00:59:00.874Z,19
2022-09-01T01:00:00.875Z,18
2022-09-01T01:03:01.029Z,17
2022-09-01T01:04:00.877Z,16
2022-09-01T01:05:00.882Z,17
2022-09-01T01:06:00.906Z,15
2022-09-01T01:10:00.877Z,14
2022-09-01T01:11:00.922Z,15
2022-09-01T01:13:00.881Z,18
2022-09-01T01:14:00.879Z,21
2022-09-01T01:15:00.880Z,19
2022-09-01T01:16:00.906Z,20
2022-09-01T01:17:00.969Z,19
2022-09-01T01:18:00.881Z,18
2022-09-01T01:19:00.881Z,17
2022-09-01T01:20:00.909Z,19
2022-09-01T01:21:00.881Z,18
2022-09-01T01:22:00.882Z,19
2022-09-01T01:26:00.909Z,18
2022-09-01T01:28:00.884Z,21
2022-09-01T01:29:00.881Z,19
2022-09-01T01:30:00.883Z,20
2022-09-01T01:32:00.973Z,19
2022-09-01T01:33:00.882Z,18
2022-09-01T01:35:00.885Z,17
2022-09-01T01:36:00.916Z,19
2022-09-01T01:38:01.908Z,18
2022-09-01T01:39:00.882Z,17
2022-09-01T01:41:01.059Z,15
2022-09-01T01:42:00.883Z,14
2022-09-01T01:43:00.883Z,16
2022-09-01T01:44:00.884Z,15
2022-09-01T01:45:00.884Z,17
2022-09-01T01:47:00.910Z,20
2022-09-01T01:49:00.885Z,21
2022-09-01T01:50:00.885Z,20
2022-09-01T01:51:00.888Z,19
2022-09-01T01:52:00.921Z,17
2022-09-01T01:54:00.887Z,15
2022-09-01T01:55:04.586Z,17
2022-09-01T01:57:00.915Z,18
2022-09-01T01:58:00.888Z,17
2022-09-01T01:59:00.888Z,20
2022-09-01T02:00:00.891Z,19
2022-09-01T02:01:00.970Z,18
2022-09-01T02:02:00.955Z,16
2022-09-01T02:04:00.889Z,15
2022-09-01T02:05:00.887Z,16
2022-09-01T02:07:00.923Z,17
2022-09-01T02:09:00.888Z,15
2022-09-01T02:10:00.888Z,14
2022-09-01T02:12:01.047Z,17
2022-09-01T02:13:00.887Z,18
2022-09-01T02:14:00.894Z,19
2022-09-01T02:15:00.889Z,19
2022-09-01T02:17:00.962Z,16
2022-09-01T02:18:00.888Z,14
2022-09-01T02:19:00.888Z,15
2022-09-01T02:20:00.888Z,14
2022-09-01T02:21:00.888Z,13
2022-09-01T02:22:01.148Z,15
2022-09-01T02:25:00.889Z,18
2022-09-01T02:26:17.401Z,19
2022-09-01T02:28:00.917Z,20
2022-09-01T02:29:00.890Z,19
2022-09-01T02:30:00.892Z,16
2022-09-01T02:32:00.954Z,15
2022-09-01T02:33:01.949Z,14
2022-09-01T02:35:00.892Z,16
2022-09-01T02:36:00.893Z,17
2022-09-01T02:38:00.921Z,18
2022-09-01T02:40:01.072Z,16
2022-09-01T02:41:00.893Z,17
2022-09-01T02:42:00.893Z,18
2022-09-01T02:43:00.922Z,17
2022-09-01T02:44:00.893Z,18
2022-09-01T02:45:02.680Z,19
2022-09-01T02:46:00.948Z,18
2022-09-01T02:47:00.961Z,17
2022-09-01T02:48:00.921Z,18
2022-09-01T02:50:00.894Z,19
2022-09-01T02:51:00.894Z,18
2022-09-01T02:55:00.905Z,17
2022-09-01T02:56:01.987Z,19
2022-09-01T02:59:00.925Z,20
2022-09-01T03:00:00.896Z,19
2022-09-01T03:01:00.919Z,18
2022-09-01T03:02:00.895Z,17
2022-09-01T03:04:00.922Z,14
2022-09-01T03:05:00.933Z,17
2022-09-01T03:09:00.924Z,19
2022-09-01T03:11:00.962Z,21
2022-09-01T03:13:01.987Z,20
2022-09-01T03:16:05.941Z,15
2022-09-01T03:19:00.925Z,15
2022-09-01T03:20:01.925Z,16
2022-09-01T03:21:00.900Z,17
2022-09-01T03:22:00.898Z,18
2022-09-01T03:30:01.004Z,15
2022-09-01T03:31:00.901Z,16
2022-09-01T03:35:00.937Z,16
2022-09-01T03:36:00.907Z,13
2022-09-01T03:41:02.233Z,20
2022-09-01T03:42:00.903Z,19
2022-09-01T03:43:00.902Z,21
2022-09-01T03:44:00.928Z,20
2022-09-01T03:45:00.903Z,21
2022-09-01T03:46:00.985Z,18
2022-09-01T03:49:00.931Z,17
2022-09-01T03:51:00.905Z,18
2022-09-01T03:52:00.905Z,19
2022-09-01T03:54:00.934Z,18
2022-09-01T03:56:00.907Z,19
2022-09-01T03:57:00.907Z,18
2022-09-01T03:59:00.934Z,21
2022-09-01T04:00:00.963Z,20
2022-09-01T04:02:01.006Z,19
2022-09-01T04:03:00.908Z,20
2022-09-01T04:04:00.942Z,18
2022-09-01T04:10:00.911Z,19
2022-09-01T04:13:00.981Z,18
2022-09-01T04:15:00.912Z,17
2022-09-01T04:17:00.911Z,18
2022-09-01T04:18:00.910Z,19
2022-09-01T04:20:00.910Z,21
2022-09-01T04:21:00.910Z,20
2022-09-01T04:22:00.917Z,19
2022-09-01T04:23:00.910Z,17
2022-09-01T04:24:00.911Z,16
2022-09-01T04:25:00.909Z,15
2022-09-01T04:26:00.910Z,14
2022-09-01T04:27:00.909Z,15
2022-09-01T04:30:00.911Z,14
2022-09-01T04:31:00.913Z,15
2022-09-01T04:32:01.009Z,14
2022-09-01T04:33:00.912Z,16
2022-09-01T04:35:00.913Z,15
2022-09-01T04:36:00.911Z,16
2022-09-01T04:37:00.912Z,18
2022-09-01T04:38:00.911Z,17
2022-09-01T04:39:00.956Z,19
2022-09-01T04:40:00.912Z,20
2022-09-01T04:41:00.910Z,21
2022-09-01T04:42:00.911Z,22
2022-09-01T04:43:00.915Z,23
2022-09-01T04:44:00.955Z,22
2022-09-01T04:45:01.863Z,24
2022-09-01T04:46:00.946Z,20
2022-09-01T04:47:00.911Z,19
2022-09-01T04:50:00.915Z,18
2022-09-01T04:52:01.048Z,17
2022-09-01T04:53:00.912Z,16
2022-09-01T04:54:00.911Z,14
2022-09-01T04:55:00.910Z,16
2022-09-01T04:56:00.912Z,18
2022-09-01T04:57:00.911Z,19
2022-09-01T04:58:00.911Z,18
2022-09-01T04:59:00.923Z,20
2022-09-01T05:00:00.913Z,19
2022-09-01T05:01:00.934Z,21
2022-09-01T05:02:01.021Z,20
2022-09-01T05:03:00.919Z,19
2022-09-01T05:05:00.914Z,18
2022-09-01T05:06:00.914Z,15
2022-09-01T05:07:00.976Z,17
2022-09-01T05:08:00.914Z,18
2022-09-01T05:09:00.914Z,16
2022-09-01T05:12:00.981Z,15
2022-09-01T05:13:00.918Z,17
2022-09-01T05:14:00.931Z,18
2022-09-01T05:15:00.914Z,20
2022-09-01T05:16:00.932Z,18
2022-09-01T05:17:00.915Z,19
2022-09-01T05:18:00.915Z,18
2022-09-01T05:20:00.916Z,17
2022-09-01T05:21:00.916Z,18
2022-09-01T05:23:00.915Z,15
2022-09-01T05:24:00.914Z,17
2022-09-01T05:25:00.914Z,16
2022-09-01T05:26:00.914Z,17
2022-09-01T05:27:00.915Z,16
2022-09-01T05:28:00.915Z,17
2022-09-01T05:30:00.914Z,17
2022-09-01T05:31:00.973Z,16
2022-09-01T05:34:00.918Z,15
2022-09-01T05:35:00.918Z,14
2022-09-01T05:36:00.927Z,15
2022-09-01T05:37:01.009Z,16
2022-09-01T05:38:00.919Z,15
2022-09-01T05:39:00.918Z,17
2022-09-01T05:40:00.919Z,15
2022-09-01T05:41:00.921Z,17
2022-09-01T05:43:00.921Z,19
2022-09-01T05:44:01.083Z,18
2022-09-01T05:45:00.920Z,21
2022-09-01T05:46:06.781Z,18
2022-09-01T05:47:00.990Z,19
2022-09-01T05:48:00.920Z,18
2022-09-01T05:50:00.920Z,17
2022-09-01T05:53:00.988Z,18
2022-09-01T05:55:00.950Z,19
2022-09-01T05:56:00.931Z,21
2022-09-01T05:57:13.063Z,19
2022-09-01T06:15:00.715Z,19
2022-09-01T06:16:00.684Z,17
2022-09-01T06:18:00.648Z,18
2022-09-01T06:19:00.623Z,19
2022-09-01T06:20:00.894Z,18
2022-09-01T06:21:00.621Z,20
2022-09-01T06:22:00.621Z,19
2022-09-01T06:24:00.653Z,18
2022-09-01T06:25:02.910Z,20
2022-09-01T06:26:00.632Z,19
2022-09-01T06:27:00.625Z,21
2022-09-01T06:28:00.622Z,20
2022-09-01T06:29:00.628Z,17
2022-09-01T06:30:00.621Z,16
2022-09-01T06:32:01.779Z,14
2022-09-01T06:33:00.622Z,15
2022-09-01T06:34:04.223Z,19
2022-09-01T06:35:00.692Z,18
2022-09-01T06:36:00.630Z,20
2022-09-01T06:37:01.653Z,19
2022-09-01T06:38:00.626Z,20
2022-09-01T06:39:01.654Z,18
2022-09-01T06:41:00.691Z,16
2022-09-01T06:42:01.652Z,17
2022-09-01T06:43:06.133Z,15
2022-09-01T06:44:05.699Z,16
2022-09-01T06:45:00.695Z,16
2022-09-01T06:46:00.629Z,17
2022-09-01T06:48:00.629Z,18
2022-09-01T06:49:00.630Z,17
2022-09-01T06:52:01.656Z,17
2022-09-01T07:35:00.307Z,21
2022-09-01T07:39:57.742Z,16
2022-09-01T07:55:00.434Z,13
2022-09-01T07:56:00.341Z,20
2022-09-01T07:57:00.356Z,18
2022-09-01T07:58:00.415Z,17
2022-09-01T07:59:00.318Z,15
2022-09-01T08:00:00.325Z,17
2022-09-01T08:01:00.321Z,13
2022-09-01T08:03:00.432Z,16
2022-09-01T08:04:00.320Z,17
2022-09-01T08:05:00.254Z,15
2022-09-01T08:06:00.322Z,19
2022-09-01T08:08:00.414Z,17
2022-09-01T08:11:06.979Z,16
2022-09-01T08:13:00.400Z,15
2022-09-01T08:14:00.323Z,16
2022-09-01T08:35:00.702Z,18
2022-09-01T08:37:00.488Z,17
2022-09-01T08:39:00.532Z,18
2022-09-01T08:40:00.499Z,17
2022-09-01T08:41:00.604Z,16
2022-09-01T08:42:00.550Z,17
2022-09-01T08:43:00.485Z,16
2022-09-01T08:44:05.543Z,18
2022-09-01T08:45:00.554Z,18
2022-09-01T09:05:00.864Z,31
2022-09-01T09:06:01.433Z,22
2022-09-01T09:07:00.739Z,20
2022-09-01T09:08:08.010Z,18
2022-09-01T09:09:01.069Z,17
2022-09-01T09:10:00.738Z,14
2022-09-01T09:11:00.740Z,15
2022-09-01T09:13:01.529Z,16
2022-09-01T09:15:00.740Z,17
2022-09-01T09:17:00.740Z,18
2022-09-01T09:18:00.744Z,19
2022-09-01T09:19:00.750Z,20
2022-09-01T09:20:00.742Z,19
2022-09-01T09:21:00.750Z,20
2022-09-01T09:22:00.742Z,19
2022-09-01T09:23:00.741Z,18
2022-09-01T09:25:00.742Z,16
2022-09-01T09:26:00.743Z,15
2022-09-01T09:28:01.067Z,14
2022-09-01T09:29:00.743Z,17
2022-09-01T09:30:04.320Z,19
2022-09-01T09:31:00.782Z,18
2022-09-01T09:34:00.982Z,17
2022-09-01T09:35:01.010Z,15
2022-09-01T09:36:00.742Z,17
2022-09-01T09:37:00.742Z,18
2022-09-01T09:39:01.383Z,17
2022-09-01T10:05:01.195Z,26
2022-09-01T10:06:01.100Z,22
2022-09-01T10:07:01.063Z,20
2022-09-01T10:08:01.066Z,21
2022-09-01T10:09:01.072Z,20
2022-09-01T10:10:01.069Z,16
2022-09-01T10:12:01.221Z,15
2022-09-01T10:15:04.614Z,16
2022-09-01T10:16:01.065Z,17
2022-09-01T10:17:01.644Z,18
2022-09-01T10:18:30.792Z,17
2022-09-01T10:19:01.053Z,15
2022-09-01T10:20:01.065Z,17
2022-09-01T10:21:01.066Z,14
2022-09-01T10:23:01.095Z,16
2022-09-01T10:25:01.065Z,15
2022-09-01T10:26:01.075Z,16
2022-09-01T10:27:01.067Z,15
2022-09-01T10:29:01.095Z,14
2022-09-01T10:55:00.658Z,12
2022-09-01T10:56:01.968Z,13
2022-09-01T10:57:03.843Z,15
2022-09-01T11:15:00.630Z,18
2022-09-01T11:16:00.820Z,17
2022-09-01T11:19:00.458Z,16
2022-09-01T11:20:00.489Z,17
2022-09-01T11:21:00.462Z,18
2022-09-01T11:22:00.461Z,19
2022-09-01T11:23:00.459Z,18
2022-09-01T11:45:00.867Z,16
2022-09-01T11:46:00.751Z,17
2022-09-01T11:47:00.658Z,15
2022-09-01T11:48:00.657Z,16
2022-09-01T11:49:00.658Z,15
2022-09-01T11:52:00.732Z,16
2022-09-01T11:53:04.870Z,17
2022-09-01T11:54:00.662Z,16
2022-09-01T11:55:00.714Z,18
2022-09-01T11:56:01.112Z,17
2022-09-01T11:58:00.661Z,15
2022-09-01T11:59:00.660Z,17
2022-09-01T12:00:00.699Z,16
2022-09-01T12:01:00.660Z,15
2022-09-01T12:03:00.821Z,17
2022-09-01T12:04:00.661Z,15
2022-09-01T12:05:00.694Z,16
2022-09-01T12:08:00.661Z,15
2022-09-01T12:09:00.661Z,16
2022-09-01T12:10:00.699Z,15
2022-09-01T12:11:00.663Z,16
2022-09-01T12:14:00.664Z,17
2022-09-01T12:15:07.124Z,18
2022-09-01T12:17:00.729Z,19
2022-09-01T12:19:00.663Z,17
2022-09-01T12:20:00.706Z,15
2022-09-01T12:21:00.672Z,14
2022-09-01T12:22:00.690Z,12
2022-09-01T12:23:00.661Z,13
2022-09-01T12:24:00.662Z,12
2022-09-01T12:25:00.714Z,13
2022-09-01T12:26:00.664Z,14
2022-09-01T12:27:00.664Z,17
2022-09-01T12:28:00.663Z,19
2022-09-01T12:30:00.691Z,23
2022-09-01T12:31:00.664Z,22
2022-09-01T12:32:00.780Z,21
2022-09-01T12:55:01.125Z,17
2022-09-01T12:57:01.058Z,16
2022-09-01T12:58:01.058Z,15
2022-09-01T13:00:01.132Z,15
2022-09-01T13:01:01.221Z,16
2022-09-01T13:02:01.114Z,18
2022-09-01T13:03:01.128Z,19
2022-09-01T13:04:01.125Z,20
2022-09-01T13:06:01.057Z,21
2022-09-01T13:07:01.060Z,19
2022-09-01T13:08:01.059Z,18
2022-09-01T13:09:01.125Z,17
2022-09-01T13:10:01.145Z,18
2022-09-01T13:11:01.265Z,16
2022-09-01T13:12:08.324Z,17
2022-09-01T13:15:01.186Z,16
2022-09-01T13:16:01.105Z,17
2022-09-01T13:17:01.061Z,14
2022-09-01T13:20:01.061Z,15
2022-09-01T13:21:01.059Z,14
2022-09-01T13:22:01.060Z,17
2022-09-01T13:23:01.066Z,18
2022-09-01T13:24:01.060Z,17
2022-09-01T13:25:01.067Z,16
2022-09-01T13:27:31.020Z,14
2022-09-01T13:29:01.042Z,15
2022-09-01T13:30:01.062Z,16
2022-09-01T13:55:00.891Z,11
2022-09-01T13:56:00.863Z,15
2022-09-01T13:58:00.375Z,14
2022-09-01T13:59:00.375Z,15
2022-09-01T14:00:00.378Z,16
2022-09-01T14:03:00.440Z,18
2022-09-01T14:06:00.377Z,17
2022-09-01T14:07:00.375Z,16
2022-09-01T14:08:00.375Z,17
2022-09-01T14:10:00.408Z,18
2022-09-01T14:11:00.375Z,19
2022-09-01T14:12:00.377Z,21
2022-09-01T14:15:17.439Z,19
2022-09-01T14:16:00.438Z,18
2022-09-01T14:17:00.376Z,16
2022-09-01T14:18:00.381Z,15
2022-09-01T14:19:00.374Z,14
2022-09-01T14:20:00.420Z,15
2022-09-01T14:21:00.375Z,14
2022-09-01T14:22:00.479Z,15
2022-09-01T14:25:00.442Z,16
2022-09-01T14:27:00.378Z,17
2022-09-01T14:29:00.381Z,19
2022-09-01T14:30:00.421Z,17
2022-09-01T14:32:00.380Z,15
2022-09-01T14:33:00.381Z,17
2022-09-01T14:34:00.383Z,15
2022-09-01T14:35:00.417Z,16
2022-09-01T14:36:00.383Z,15
2022-09-01T14:37:00.381Z,18
2022-09-01T14:38:00.381Z,19
2022-09-01T14:39:00.382Z,18
2022-09-01T14:41:00.445Z,19
2022-09-01T14:42:00.383Z,15
2022-09-01T14:43:00.381Z,13
2022-09-01T14:45:00.410Z,15
2022-09-01T14:46:00.383Z,17
2022-09-01T14:47:00.421Z,20
2022-09-01T14:48:00.383Z,21
2022-09-01T14:49:00.384Z,22
2022-09-01T14:50:00.463Z,20
2022-09-01T14:51:00.381Z,17
2022-09-01T14:52:15.729Z,16
2022-09-01T14:53:00.359Z,15
2022-09-01T14:56:00.410Z,18
2022-09-01T15:15:00.866Z,16
2022-09-01T15:16:00.942Z,20
2022-09-01T15:18:00.899Z,19
2022-09-01T15:20:00.862Z,20
2022-09-01T15:21:00.861Z,18
2022-09-01T15:22:00.879Z,19
2022-09-01T15:26:00.862Z,21
2022-09-01T15:27:00.864Z,20
2022-09-01T15:28:00.893Z,19
2022-09-01T15:30:00.867Z,19
2022-09-01T15:31:00.886Z,18
2022-09-01T15:34:00.901Z,17
2022-09-01T15:35:00.864Z,16
2022-09-01T15:37:00.864Z,14
2022-09-01T15:38:00.865Z,16
2022-09-01T15:39:01.019Z,17
2022-09-01T15:41:01.013Z,16
2022-09-01T15:42:00.925Z,18
2022-09-01T15:43:00.869Z,17
2022-09-01T15:45:00.867Z,16
2022-09-01T15:46:00.866Z,17
2022-09-01T15:48:00.866Z,18
2022-09-01T15:49:00.867Z,17
2022-09-01T15:50:00.866Z,18
2022-09-01T15:51:00.866Z,17
2022-09-01T15:52:00.902Z,16
2022-09-01T15:53:00.865Z,15
2022-09-01T15:54:00.866Z,16
2022-09-01T15:55:00.868Z,17
2022-09-01T15:56:00.867Z,19
2022-09-01T15:58:00.868Z,18
2022-09-01T15:59:01.773Z,19
2022-09-01T16:00:00.868Z,18
2022-09-01T16:02:01.094Z,16
2022-09-01T16:03:00.868Z,18
2022-09-01T16:04:00.879Z,17
2022-09-01T16:06:00.869Z,16
2022-09-01T16:07:00.871Z,17
2022-09-01T16:09:01.900Z,15
2022-09-01T16:10:00.870Z,17
2022-09-01T16:11:00.873Z,16
2022-09-01T16:12:00.968Z,18
2022-09-01T16:14:00.871Z,21
2022-09-01T16:15:00.873Z,22
2022-09-01T16:16:00.898Z,20
2022-09-01T16:17:00.872Z,19
2022-09-01T16:18:00.874Z,18
2022-09-01T16:19:00.873Z,16
2022-09-01T16:20:00.874Z,14
2022-09-01T16:21:00.874Z,16
2022-09-01T16:22:00.877Z,15
2022-09-01T16:23:00.874Z,14
2022-09-01T16:24:05.213Z,15
2022-09-01T16:25:00.876Z,16
2022-09-01T16:26:00.875Z,17
2022-09-01T16:27:00.878Z,16
2022-09-01T16:28:00.878Z,18
2022-09-01T16:30:00.886Z,18
2022-09-01T16:31:00.896Z,19
2022-09-01T16:33:00.879Z,17
2022-09-01T16:34:00.889Z,18
2022-09-01T16:35:00.955Z,17
2022-09-01T16:37:00.879Z,18
2022-09-01T16:38:00.879Z,19
2022-09-01T16:39:00.882Z,18
2022-09-01T16:40:00.954Z,20
2022-09-01T16:41:01.011Z,18
2022-09-01T16:42:00.946Z,17
2022-09-01T16:44:00.880Z,18
2022-09-01T16:45:00.884Z,18
2022-09-01T16:46:00.882Z,19
2022-09-01T16:49:00.883Z,17
2022-09-01T16:50:00.882Z,15
2022-09-01T16:51:00.883Z,17
2022-09-01T16:54:00.882Z,16
2022-09-01T16:56:00.901Z,14
2022-09-01T16:57:00.885Z,15
2022-09-01T17:00:00.893Z,15
2022-09-01T17:01:00.914Z,17
2022-09-01T17:02:00.979Z,15
2022-09-01T17:03:00.886Z,14
2022-09-01T17:04:00.886Z,17
2022-09-01T17:05:00.885Z,18
2022-09-01T17:06:00.886Z,16
2022-09-01T17:09:00.887Z,15
2022-09-01T17:12:00.952Z,16
2022-09-01T17:13:00.887Z,17
2022-09-01T17:15:00.889Z,18
2022-09-01T17:16:01.064Z,20
2022-09-01T17:19:00.892Z,21
2022-09-01T17:21:00.954Z,20
2022-09-01T17:22:00.891Z,21
2022-09-01T17:24:01.981Z,20
2022-09-01T17:25:00.908Z,19
2022-09-01T17:26:00.892Z,17
2022-09-01T17:27:00.892Z,16
2022-09-01T17:28:00.891Z,15
2022-09-01T17:29:00.891Z,16
2022-09-01T17:30:00.897Z,16
2022-09-01T17:32:00.958Z,17
2022-09-01T17:34:00.895Z,15
2022-09-01T17:35:00.896Z,17
2022-09-01T17:36:00.899Z,16
2022-09-01T17:37:00.895Z,17
2022-09-01T17:39:01.922Z,16
2022-09-01T17:40:00.895Z,15
2022-09-01T17:42:01.026Z,13
2022-09-01T17:43:00.908Z,15
2022-09-01T17:44:00.897Z,17
2022-09-01T17:45:00.897Z,16
2022-09-01T17:46:00.949Z,17
2022-09-01T17:47:00.903Z,19
2022-09-01T17:48:00.895Z,18
2022-09-01T17:49:00.978Z,16
2022-09-01T17:50:00.976Z,17
2022-09-01T17:51:01.626Z,18
2022-09-01T17:53:00.898Z,17
2022-09-01T17:54:00.942Z,18
2022-09-01T17:56:00.900Z,16
2022-09-01T17:57:00.898Z,17
2022-09-01T18:00:00.906Z,16
2022-09-01T18:01:00.975Z,17
2022-09-01T18:02:00.921Z,16
2022-09-01T18:03:00.903Z,18
2022-09-01T18:07:00.898Z,19
2022-09-01T18:08:00.900Z,18
2022-09-01T18:09:00.899Z,17
2022-09-01T18:12:01.025Z,16
2022-09-01T18:14:05.931Z,17
2022-09-01T18:15:00.903Z,17
2022-09-01T18:16:00.982Z,18
2022-09-01T18:17:00.902Z,17
2022-09-01T18:18:00.903Z,16
2022-09-01T18:20:00.900Z,17
2022-09-01T18:21:00.909Z,16
2022-09-01T18:22:00.901Z,17
2022-09-01T18:23:00.901Z,18
2022-09-01T18:24:00.902Z,17
2022-09-01T18:25:00.899Z,16
2022-09-01T18:26:00.900Z,18
2022-09-01T18:27:00.900Z,17
2022-09-01T18:28:00.900Z,16
2022-09-01T18:30:00.911Z,17
2022-09-01T18:31:00.944Z,15
2022-09-01T18:32:00.900Z,16
2022-09-01T18:34:00.900Z,21
2022-09-01T18:36:01.031Z,20
2022-09-01T18:37:00.903Z,21
2022-09-01T18:39:00.903Z,18
2022-09-01T18:40:00.903Z,17
2022-09-01T18:42:00.974Z,15
2022-09-01T18:43:00.902Z,14
2022-09-01T18:44:00.904Z,15
2022-09-01T18:45:00.903Z,16
2022-09-01T18:46:00.971Z,17
2022-09-01T18:48:00.903Z,18
2022-09-01T18:49:00.924Z,16
2022-09-01T18:50:00.904Z,17
2022-09-01T18:51:00.902Z,16
2022-09-01T18:53:00.903Z,17
2022-09-01T18:54:00.905Z,18
2022-09-01T18:55:00.905Z,17
2022-09-01T18:57:00.908Z,16
2022-09-01T18:58:00.904Z,15
2022-09-01T19:00:00.905Z,15
2022-09-01T19:01:00.905Z,18
2022-09-01T19:06:00.906Z,16
2022-09-01T19:07:00.908Z,17
2022-09-01T19:09:00.909Z,16
2022-09-01T19:12:00.973Z,17
2022-09-01T19:13:00.911Z,16
2022-09-01T19:14:00.915Z,15
2022-09-01T19:15:00.913Z,15
2022-09-01T19:16:00.935Z,18
2022-09-01T19:17:00.916Z,16
2022-09-01T19:19:00.913Z,19
2022-09-01T19:20:00.912Z,17
2022-09-01T19:21:00.912Z,14
2022-09-01T19:22:00.914Z,15
2022-09-01T19:23:00.913Z,16
2022-09-01T19:24:00.914Z,15
2022-09-01T19:25:00.915Z,17
2022-09-01T19:26:00.913Z,18
2022-09-01T19:27:00.913Z,17
2022-09-01T19:29:01.075Z,18
2022-09-01T19:30:00.913Z,18
2022-09-01T19:31:00.968Z,19
2022-09-01T19:32:00.913Z,17
2022-09-01T19:33:00.914Z,18
2022-09-01T19:34:00.940Z,17
2022-09-01T19:36:00.912Z,16
2022-09-01T19:39:01.077Z,15
2022-09-01T19:40:00.916Z,16
2022-09-01T19:41:00.915Z,17
2022-09-01T19:42:00.911Z,19
2022-09-01T19:44:00.958Z,22
2022-09-01T19:45:00.961Z,21
2022-09-01T19:46:01.005Z,20
2022-09-01T19:47:00.911Z,19
2022-09-01T19:48:00.914Z,18
2022-09-01T19:49:01.102Z,17
2022-09-01T19:50:00.982Z,16
2022-09-01T19:51:00.981Z,15
2022-09-01T19:52:00.914Z,16
2022-09-01T19:57:00.913Z,14
2022-09-01T20:00:00.916Z,15
2022-09-01T20:02:01.046Z,17
2022-09-01T20:03:00.956Z,15
2022-09-01T20:05:00.925Z,14
2022-09-01T20:07:00.917Z,15
2022-09-01T20:08:00.915Z,17
2022-09-01T20:09:00.915Z,18
2022-09-01T20:10:00.960Z,21
2022-09-01T20:11:00.915Z,22
2022-09-01T20:13:00.917Z,23
2022-09-01T20:14:00.915Z,21
2022-09-01T20:15:00.919Z,20
2022-09-01T20:16:00.960Z,19
2022-09-01T20:17:00.922Z,18
2022-09-01T20:18:00.920Z,17
2022-09-01T20:19:00.982Z,18
2022-09-01T20:20:00.921Z,17
2022-09-01T20:21:00.918Z,14
2022-09-01T20:24:00.919Z,13
2022-09-01T20:25:00.918Z,14
2022-09-01T20:26:00.919Z,16
2022-09-01T20:27:00.919Z,15
2022-09-01T20:28:00.918Z,16
2022-09-01T20:29:00.926Z,18
2022-09-01T20:30:00.924Z,17
2022-09-01T20:32:00.986Z,19
2022-09-01T20:34:00.922Z,17
2022-09-01T20:36:00.923Z,19
2022-09-01T20:38:00.923Z,20
2022-09-01T20:39:00.922Z,18
2022-09-01T20:40:00.943Z,20
2022-09-01T20:41:00.923Z,18
2022-09-01T20:43:00.922Z,17
2022-09-01T20:44:00.921Z,20
2022-09-01T20:45:00.923Z,21
2022-09-01T20:46:01.001Z,22
2022-09-01T20:47:00.924Z,20
2022-09-01T20:49:00.925Z,19
2022-09-01T20:50:00.923Z,16
2022-09-01T20:51:00.924Z,17
2022-09-01T20:52:00.923Z,18
2022-09-01T20:53:00.925Z,17
2022-09-01T20:54:00.924Z,16
2022-09-01T20:56:00.923Z,14
2022-09-01T20:58:00.924Z,16
2022-09-01T20:59:00.924Z,15
2022-09-01T21:00:01.017Z,15
2022-09-01T21:02:01.025Z,14
2022-09-01T21:03:00.964Z,13
2022-09-01T21:04:00.926Z,14
2022-09-01T21:06:00.926Z,15
2022-09-01T21:08:00.927Z,16
2022-09-01T21:09:00.927Z,15
2022-09-01T21:10:00.927Z,16
2022-09-01T21:11:00.936Z,17
2022-09-01T21:12:00.930Z,18
2022-09-01T21:15:00.927Z,16
2022-09-01T21:16:00.928Z,15
2022-09-01T21:18:00.928Z,14
2022-09-01T21:20:00.929Z,15
2022-09-01T21:21:00.931Z,18
2022-09-01T21:24:00.931Z,19
2022-09-01T21:25:00.931Z,18
2022-09-01T21:26:00.934Z,16
2022-09-01T21:29:00.930Z,15
2022-09-01T21:30:00.934Z,17
2022-09-01T21:31:00.969Z,18
2022-09-01T21:33:00.932Z,16
2022-09-01T21:34:00.932Z,17
2022-09-01T21:35:00.941Z,15
2022-09-01T21:36:00.933Z,13
2022-09-01T21:37:00.934Z,14
2022-09-01T21:38:00.933Z,16
2022-09-01T21:40:00.934Z,17
2022-09-01T21:43:01.001Z,16
2022-09-01T21:44:00.935Z,17
2022-09-01T21:45:00.936Z,16
2022-09-01T21:46:01.015Z,17
2022-09-01T21:47:00.943Z,18
2022-09-01T21:48:00.935Z,16
2022-09-01T21:49:00.933Z,15
2022-09-01T21:50:00.970Z,17
2022-09-01T21:51:00.936Z,16
2022-09-01T21:52:00.932Z,15
2022-09-01T21:53:00.931Z,17
2022-09-01T21:55:00.932Z,16
2022-09-01T21:56:00.932Z,18
2022-09-01T21:57:00.931Z,19
2022-09-01T21:58:00.934Z,18
2022-09-01T21:59:00.931Z,16
2022-09-01T22:00:01.180Z,16
2022-09-01T22:02:01.046Z,13
2022-09-01T22:04:00.933Z,15
2022-09-01T22:05:00.934Z,16
2022-09-01T22:06:00.933Z,15
2022-09-01T22:07:00.933Z,19
2022-09-01T22:08:00.933Z,22
2022-09-01T22:09:00.935Z,20
2022-09-01T22:10:00.933Z,18
2022-09-01T22:11:00.935Z,19
2022-09-01T22:12:00.935Z,18
2022-09-01T22:15:00.936Z,20
2022-09-01T22:17:04.071Z,19
2022-09-01T22:18:00.935Z,17
2022-09-01T22:19:00.935Z,18
2022-09-01T22:20:00.940Z,17
2022-09-01T22:21:00.937Z,16
2022-09-01T22:22:00.937Z,15
2022-09-01T22:23:00.936Z,17
2022-09-01T22:26:00.937Z,18
2022-09-01T22:28:00.937Z,17
2022-09-01T22:30:00.936Z,17
2022-09-01T22:34:01.002Z,18
2022-09-01T22:38:00.939Z,16
2022-09-01T22:40:00.951Z,17
2022-09-01T22:42:01.005Z,18
2022-09-01T22:43:00.939Z,19
2022-09-01T22:45:00.941Z,19
2022-09-01T22:46:00.992Z,18
2022-09-01T22:51:03.928Z,19
2022-09-01T22:52:00.944Z,18
2022-09-01T22:53:00.955Z,20
2022-09-01T22:55:00.973Z,18
2022-09-01T22:58:01.011Z,17
2022-09-01T23:00:00.986Z,19
2022-09-01T23:01:01.007Z,18
2022-09-01T23:04:00.951Z,16
2022-09-01T23:05:01.138Z,15
2022-09-01T23:06:00.947Z,14
2022-09-01T23:07:00.950Z,15
2022-09-01T23:08:00.950Z,14
2022-09-01T23:12:01.079Z,12
2022-09-01T23:13:00.951Z,14
2022-09-01T23:14:00.951Z,15
2022-09-01T23:15:00.953Z,16
2022-09-01T23:16:00.952Z,17
2022-09-01T23:17:00.962Z,20
2022-09-01T23:18:00.952Z,19
2022-09-01T23:19:00.952Z,17
2022-09-01T23:22:01.022Z,14
2022-09-01T23:23:00.953Z,15
2022-09-01T23:24:00.954Z,16
2022-09-01T23:25:00.958Z,17
2022-09-01T23:26:00.954Z,18
2022-09-01T23:28:00.957Z,19
2022-09-01T23:30:00.958Z,20
2022-09-01T23:31:00.956Z,21
2022-09-01T23:35:00.957Z,19
2022-09-01T23:36:00.958Z,17
2022-09-01T23:37:00.967Z,16
2022-09-01T23:40:00.961Z,18
2022-09-01T23:41:00.961Z,19
2022-09-01T23:43:00.961Z,20
2022-09-01T23:45:00.965Z,18
2022-09-01T23:46:01.011Z,16
2022-09-01T23:47:00.963Z,18
2022-09-01T23:48:00.963Z,16
2022-09-01T23:49:00.963Z,17
2022-09-01T23:50:00.963Z,20
2022-09-01T23:53:01.027Z,19
2022-09-01T23:54:00.963Z,16
2022-09-01T23:56:00.966Z,18
2022-09-01T23:58:01.991Z,19
2022-09-01T23:59:00.964Z,21
